This is the latest recevied weather packets stored in our database for station/object SAVIL. If no packets are shown the sender has not sent any weather packets the latest 1 day(s).
| Time | Temp. | Humidity | Pressure | Rain* | Wind** | Luminosity | Snow |
|---|---|---|---|---|---|---|---|
| 1778021235 | 4.44° C | 51% | 1003 hPa | 0 mm | 2.68 m/s, 264° | - | - |
| 1778020035 | 4.44° C | 50% | 1002.9 hPa | 0 mm | 2.68 m/s, 255° | - | - |
| 1778018835 | 5° C | 48% | 1002.8 hPa | 0 mm | 3.13 m/s, 253° | - | - |
| 1778017635 | 5° C | 47% | 1002.6 hPa | 0 mm | 3.13 m/s, 258° | - | - |
| 1778016435 | 5.56° C | 44% | 1002.4 hPa | 0 mm | 2.68 m/s, 247° | - | - |
| 1778015235 | 5° C | 44% | 1002.3 hPa | 0 mm | 2.68 m/s, 231° | - | - |
| 1778014035 | 5.56° C | 43% | 1002.2 hPa | 0 mm | 2.68 m/s, 232° | - | - |
| 1778012835 | 5.56° C | 42% | 1002.1 hPa | 0 mm | 2.68 m/s, 230° | - | - |
| 1778011635 | 5.56° C | 42% | 1002 hPa | 0 mm | 2.68 m/s, 234° | - | - |
| 1778010435 | 6.11° C | 40% | 1002 hPa | 0 mm | 2.68 m/s, 248° | - | - |
| 1778009235 | 6.11° C | 38% | 1001.9 hPa | 0 mm | 2.24 m/s, 242° | - | - |
| 1778008035 | 6.67° C | 38% | 1001.8 hPa | 0 mm | 2.24 m/s, 250° | - | - |
| 1778006834 | 6.11° C | 41% | 1001.7 hPa | 0 mm | 1.79 m/s, 251° | - | - |
| 1778005634 | 7.22° C | 37% | 1001.5 hPa | 0 mm | 2.68 m/s, 272° | - | - |
| 1778004434 | 7.22° C | 36% | 1001.4 hPa | 0 mm | 3.13 m/s, 287° | - | - |
| 1778003234 | 7.78° C | 36% | 1001.2 hPa | 0 mm | 2.68 m/s, 289° | - | - |
| 1778002034 | 8.33° C | 34% | 1001 hPa | 0 mm | 4.02 m/s, 289° | - | - |
| 1778000834 | 8.33° C | 34% | 1000.9 hPa | 0 mm | 3.58 m/s, 291° | - | - |
| 1777999634 | 8.33° C | 34% | 1000.8 hPa | 0 mm | 3.13 m/s, 284° | - | - |
| 1777998434 | 8.33° C | 35% | 1000.7 hPa | 0 mm | 3.58 m/s, 289° | - | - |
| 1777997234 | 8.33° C | 36% | 1000.6 hPa | 0 mm | 4.02 m/s, 300° | - | - |
| 1777996034 | 8.89° C | 34% | 1000.3 hPa | 0 mm | 4.47 m/s, 289° | - | - |
| 1777994834 | 9.44° C | 32% | 999.9 hPa | 0 mm | 4.47 m/s, 287° | - | - |
| 1777993634 | 9.44° C | 33% | 999.7 hPa | 0 mm | 4.02 m/s, 309° | - | - |
| 1777992434 | 9.44° C | 32% | 999.4 hPa | 0 mm | 3.13 m/s, 258° | - | - |
* Rain latest hour (hover to see other rain measurements)
** Current wind speed in m/s (hover to see current wind gust speed)